GEC8264 SAEZ-SUMU
Flight info
| Callsign | GEC8264 |
|---|---|
| Flight time | 0h 26m |
| Altitude | 17000 |
| Route | DORV1E DORVO A305 TOKAM |
| Aircraft | B77L/H-SDE1E2E3FGHIJ2J3J4J5M1RWXY/LB1D1 |
Departure
| Time | 2026-04-25 21:35 |
|---|---|
| Airport | Ezeiza International Airport - Ministro Pistarini (SAEZ) |
Arrival
| Time | 2026-04-25 22:02 |
|---|---|
| Airport | Carrasco General Cesáreo L. Berisso International Airport (SUMU) |
| Time | Latitude | Longitude | Altitude | Speed | Heading |
|---|---|---|---|---|---|
| 2026-04-25 21:00 | -34.81025 | -58.53697 | 80 ft | 0 kts | 252° |
| 2026-04-25 21:13 | -34.81021 | -58.53680 | 85 ft | 3 kts | 252° |
| 2026-04-25 21:13 | -34.81016 | -58.53659 | 85 ft | 3 kts | 252° |
| 2026-04-25 21:13 | -34.81010 | -58.53637 | 86 ft | 3 kts | 237° |
| 2026-04-25 21:13 | -34.80996 | -58.53621 | 86 ft | 3 kts | 194° |
| 2026-04-25 21:14 | -34.80983 | -58.53619 | 86 ft | 0 kts | 169° |
| 2026-04-25 21:15 | -34.81009 | -58.53608 | 85 ft | 10 kts | 161° |
| 2026-04-25 21:16 | -34.81077 | -58.53579 | 83 ft | 10 kts | 161° |
| 2026-04-25 21:16 | -34.81147 | -58.53565 | 85 ft | 10 kts | 188° |
| 2026-04-25 21:16 | -34.81217 | -58.53588 | 83 ft | 10 kts | 184° |
| 2026-04-25 21:16 | -34.81285 | -58.53586 | 84 ft | 7 kts | 177° |
| 2026-04-25 21:17 | -34.81291 | -58.53585 | 84 ft | 0 kts | 177° |
| 2026-04-25 21:17 | -34.81296 | -58.53585 | 83 ft | 1 kts | 177° |
| 2026-04-25 21:17 | -34.81302 | -58.53585 | 84 ft | 0 kts | 177° |
| 2026-04-25 21:17 | -34.81320 | -58.53584 | 85 ft | 13 kts | 177° |
| 2026-04-25 21:18 | -34.81444 | -58.53612 | 84 ft | 19 kts | 202° |
| 2026-04-25 21:18 | -34.81561 | -58.53688 | 83 ft | 19 kts | 219° |
| 2026-04-25 21:18 | -34.81577 | -58.53705 | 82 ft | 0 kts | 223° |
| 2026-04-25 21:19 | -34.81581 | -58.53709 | 83 ft | 7 kts | 223° |
| 2026-04-25 21:19 | -34.81669 | -58.53817 | 84 ft | 21 kts | 225° |
| 2026-04-25 21:19 | -34.81756 | -58.53961 | 85 ft | 21 kts | 239° |
| 2026-04-25 21:19 | -34.81784 | -58.54190 | 81 ft | 21 kts | 277° |
| 2026-04-25 21:20 | -34.81765 | -58.54368 | 84 ft | 21 kts | 278° |
| 2026-04-25 21:20 | -34.81758 | -58.54428 | 83 ft | 21 kts | 278° |
| 2026-04-25 21:20 | -34.81777 | -58.54665 | 82 ft | 21 kts | 256° |
| 2026-04-25 21:20 | -34.81766 | -58.54834 | 84 ft | 16 kts | 283° |
| 2026-04-25 21:21 | -34.81743 | -58.54955 | 80 ft | 15 kts | 282° |
| 2026-04-25 21:21 | -34.81724 | -58.55062 | 81 ft | 13 kts | 282° |
| 2026-04-25 21:21 | -34.81705 | -58.55167 | 84 ft | 12 kts | 282° |
| 2026-04-25 21:21 | -34.81698 | -58.55204 | 81 ft | 0 kts | 282° |
| 2026-04-25 21:30 | -34.81696 | -58.55213 | 80 ft | 9 kts | 282° |
| 2026-04-25 21:30 | -34.81718 | -58.55320 | 86 ft | 10 kts | 220° |
| 2026-04-25 21:30 | -34.81738 | -58.55331 | 85 ft | 0 kts | 201° |
| 2026-04-25 21:33 | -34.81823 | -58.55328 | 86 ft | 16 kts | 165° |
| 2026-04-25 21:33 | -34.81914 | -58.55291 | 84 ft | 13 kts | 120° |
| 2026-04-25 21:34 | -34.81921 | -58.55254 | 84 ft | 0 kts | 102° |
| 2026-04-25 21:34 | -34.81957 | -58.55057 | 84 ft | 63 kts | 102° |
| 2026-04-25 21:34 | -34.82105 | -58.54229 | 89 ft | 135 kts | 102° |
| 2026-04-25 21:35 | -34.82336 | -58.52915 | 271 ft | 168 kts | 101° |
| 2026-04-25 21:35 | -34.82600 | -58.51527 | 857 ft | 169 kts | 112° |
| 2026-04-25 21:35 | -34.83180 | -58.50273 | 1427 ft | 174 kts | 128° |
| 2026-04-25 21:35 | -34.83909 | -58.49070 | 2032 ft | 178 kts | 129° |
| 2026-04-25 21:36 | -34.84619 | -58.47828 | 2566 ft | 188 kts | 115° |
| 2026-04-25 21:36 | -34.84709 | -58.46169 | 2761 ft | 210 kts | 78° |
| 2026-04-25 21:36 | -34.84367 | -58.44322 | 2987 ft | 239 kts | 78° |
| 2026-04-25 21:36 | -34.84014 | -58.42217 | 3350 ft | 263 kts | 79° |
| 2026-04-25 21:37 | -34.83661 | -58.39979 | 4067 ft | 274 kts | 79° |
| 2026-04-25 21:37 | -34.83429 | -58.38453 | 4579 ft | 280 kts | 80° |
| 2026-04-25 21:37 | -34.82966 | -58.35288 | 5710 ft | 286 kts | 81° |
| 2026-04-25 21:37 | -34.82625 | -58.32883 | 6569 ft | 291 kts | 81° |
| 2026-04-25 21:38 | -34.82281 | -58.30435 | 7353 ft | 296 kts | 81° |
| 2026-04-25 21:38 | -34.81936 | -58.27945 | 8134 ft | 301 kts | 81° |
| 2026-04-25 21:38 | -34.81590 | -58.25407 | 8946 ft | 306 kts | 81° |
| 2026-04-25 21:38 | -34.81241 | -58.22829 | 9750 ft | 311 kts | 81° |
| 2026-04-25 21:39 | -34.80888 | -58.20207 | 10373 ft | 322 kts | 80° |
| 2026-04-25 21:39 | -34.80515 | -58.17419 | 10671 ft | 343 kts | 80° |
| 2026-04-25 21:39 | -34.80124 | -58.14500 | 11269 ft | 354 kts | 80° |
| 2026-04-25 21:39 | -34.79724 | -58.11509 | 11989 ft | 361 kts | 79° |
| 2026-04-25 21:40 | -34.79318 | -58.08469 | 12791 ft | 366 kts | 79° |
| 2026-04-25 21:40 | -34.78907 | -58.05394 | 13598 ft | 371 kts | 79° |
| 2026-04-25 21:40 | -34.78494 | -58.02311 | 14297 ft | 377 kts | 79° |
| 2026-04-25 21:40 | -34.78063 | -57.99107 | 14985 ft | 383 kts | 79° |
| 2026-04-25 21:41 | -34.77636 | -57.95927 | 15673 ft | 388 kts | 79° |
| 2026-04-25 21:41 | -34.77196 | -57.92667 | 16378 ft | 393 kts | 79° |
| 2026-04-25 21:41 | -34.76753 | -57.89386 | 16922 ft | 395 kts | 79° |
| 2026-04-25 21:41 | -34.76294 | -57.85998 | 16986 ft | 419 kts | 79° |
| 2026-04-25 21:42 | -34.75804 | -57.82399 | 16992 ft | 443 kts | 79° |
| 2026-04-25 21:42 | -34.75289 | -57.78615 | 17003 ft | 462 kts | 79° |
| 2026-04-25 21:42 | -34.74760 | -57.74727 | 16966 ft | 467 kts | 79° |
| 2026-04-25 21:42 | -34.74230 | -57.70832 | 16955 ft | 466 kts | 79° |
| 2026-04-25 21:43 | -34.73699 | -57.66943 | 16947 ft | 466 kts | 79° |
| 2026-04-25 21:43 | -34.73167 | -57.63057 | 16935 ft | 466 kts | 79° |
| 2026-04-25 21:43 | -34.72633 | -57.59179 | 16959 ft | 465 kts | 79° |
| 2026-04-25 21:43 | -34.72112 | -57.55297 | 16960 ft | 466 kts | 81° |
| 2026-04-25 21:44 | -34.71835 | -57.51372 | 16963 ft | 466 kts | 87° |
| 2026-04-25 21:44 | -34.71873 | -57.47494 | 16933 ft | 451 kts | 94° |
| 2026-04-25 21:44 | -34.72516 | -57.40224 | 16940 ft | 415 kts | 96° |
| 2026-04-25 21:45 | -34.72821 | -57.36802 | 16944 ft | 399 kts | 96° |
| 2026-04-25 21:45 | -34.73013 | -57.34601 | 16935 ft | 394 kts | 96° |
| 2026-04-25 21:45 | -34.73407 | -57.29982 | 16990 ft | 428 kts | 96° |
| 2026-04-25 21:45 | -34.73715 | -57.26304 | 16910 ft | 442 kts | 96° |
| 2026-04-25 21:46 | -34.74025 | -57.22561 | 16291 ft | 448 kts | 96° |
| 2026-04-25 21:46 | -34.74336 | -57.18776 | 15594 ft | 449 kts | 95° |
| 2026-04-25 21:46 | -34.74640 | -57.15040 | 15474 ft | 438 kts | 95° |
| 2026-04-25 21:46 | -34.74942 | -57.11325 | 15461 ft | 442 kts | 95° |
| 2026-04-25 21:47 | -34.75237 | -57.07681 | 15447 ft | 435 kts | 95° |
| 2026-04-25 21:47 | -34.75530 | -57.04038 | 15451 ft | 433 kts | 95° |
| 2026-04-25 21:47 | -34.75824 | -57.00381 | 15461 ft | 436 kts | 95° |
| 2026-04-25 21:47 | -34.76123 | -56.96651 | 15469 ft | 439 kts | 95° |
| 2026-04-25 21:48 | -34.76418 | -56.92955 | 15424 ft | 438 kts | 95° |
| 2026-04-25 21:48 | -34.76706 | -56.89335 | 15174 ft | 435 kts | 95° |
| 2026-04-25 21:48 | -34.77003 | -56.85593 | 14959 ft | 443 kts | 95° |
| 2026-04-25 21:48 | -34.77295 | -56.81891 | 14969 ft | 448 kts | 95° |
| 2026-04-25 21:49 | -34.77593 | -56.78104 | 14969 ft | 451 kts | 95° |
| 2026-04-25 21:49 | -34.77839 | -56.74310 | 14959 ft | 450 kts | 91° |
| 2026-04-25 21:49 | -34.77776 | -56.70543 | 14812 ft | 442 kts | 85° |
| 2026-04-25 21:49 | -34.77399 | -56.66852 | 14357 ft | 437 kts | 78° |
| 2026-04-25 21:50 | -34.76770 | -56.63255 | 13835 ft | 432 kts | 76° |
| 2026-04-25 21:50 | -34.76150 | -56.59676 | 13110 ft | 431 kts | 77° |
| 2026-04-25 21:50 | -34.75550 | -56.56136 | 12643 ft | 423 kts | 77° |
| 2026-04-25 21:50 | -34.75163 | -56.53831 | 12371 ft | 417 kts | 77° |
| 2026-04-25 21:51 | -34.74150 | -56.49336 | 11448 ft | 411 kts | 66° |
| 2026-04-25 21:51 | -34.72847 | -56.46298 | 11014 ft | 401 kts | 55° |
| 2026-04-25 21:51 | -34.71254 | -56.43540 | 10452 ft | 396 kts | 51° |
| 2026-04-25 21:51 | -34.69600 | -56.40919 | 10108 ft | 387 kts | 50° |
| 2026-04-25 21:52 | -34.67936 | -56.38347 | 9424 ft | 387 kts | 50° |
| 2026-04-25 21:52 | -34.66268 | -56.35799 | 8907 ft | 382 kts | 50° |
| 2026-04-25 21:52 | -34.64619 | -56.33297 | 8429 ft | 376 kts | 50° |
| 2026-04-25 21:52 | -34.63026 | -56.30839 | 8097 ft | 360 kts | 54° |
| 2026-04-25 21:53 | -34.62080 | -56.28103 | 7791 ft | 350 kts | 80° |
| 2026-04-25 21:53 | -34.61951 | -56.25170 | 7448 ft | 348 kts | 92° |
| 2026-04-25 21:53 | -34.62120 | -56.22220 | 7016 ft | 354 kts | 96° |
| 2026-04-25 21:53 | -34.62391 | -56.19210 | 6563 ft | 362 kts | 97° |
| 2026-04-25 21:54 | -34.62687 | -56.16173 | 6107 ft | 361 kts | 97° |
| 2026-04-25 21:54 | -34.62974 | -56.13168 | 5586 ft | 357 kts | 97° |
| 2026-04-25 21:54 | -34.63246 | -56.10202 | 5159 ft | 351 kts | 97° |
| 2026-04-25 21:54 | -34.63509 | -56.07236 | 5013 ft | 356 kts | 97° |
| 2026-04-25 21:55 | -34.63767 | -56.04264 | 5002 ft | 349 kts | 97° |
| 2026-04-25 21:55 | -34.64012 | -56.01401 | 4989 ft | 332 kts | 96° |
| 2026-04-25 21:55 | -34.64242 | -55.98692 | 4988 ft | 313 kts | 96° |
| 2026-04-25 21:55 | -34.64459 | -55.96131 | 4924 ft | 298 kts | 96° |
| 2026-04-25 21:56 | -34.64720 | -55.93714 | 4803 ft | 278 kts | 106° |
| 2026-04-25 21:56 | -34.65220 | -55.92328 | 4685 ft | 267 kts | 126° |
| 2026-04-25 21:56 | -34.66873 | -55.90364 | 4474 ft | 236 kts | 146° |
| 2026-04-25 21:56 | -34.68170 | -55.89220 | 4322 ft | 228 kts | 145° |
| 2026-04-25 21:57 | -34.69439 | -55.88086 | 4271 ft | 223 kts | 145° |
| 2026-04-25 21:57 | -34.70697 | -55.87025 | 3869 ft | 227 kts | 154° |
| 2026-04-25 21:57 | -34.72172 | -55.86358 | 3409 ft | 227 kts | 169° |
| 2026-04-25 21:57 | -34.73671 | -55.86361 | 3240 ft | 207 kts | 202° |
| 2026-04-25 21:58 | -34.74698 | -55.87400 | 3007 ft | 189 kts | 240° |
| 2026-04-25 21:58 | -34.75297 | -55.88762 | 2746 ft | 177 kts | 243° |
| 2026-04-25 21:58 | -34.75871 | -55.90049 | 2371 ft | 169 kts | 238° |
| 2026-04-25 21:58 | -34.76554 | -55.91169 | 2033 ft | 157 kts | 232° |
| 2026-04-25 21:59 | -34.77206 | -55.92187 | 1861 ft | 153 kts | 234° |
| 2026-04-25 21:59 | -34.77805 | -55.93221 | 1721 ft | 149 kts | 236° |
| 2026-04-25 21:59 | -34.78414 | -55.94258 | 1525 ft | 153 kts | 234° |
| 2026-04-25 22:00 | -34.79689 | -55.96341 | 1138 ft | 152 kts | 231° |
| 2026-04-25 22:00 | -34.80327 | -55.97364 | 959 ft | 153 kts | 233° |
| 2026-04-25 22:00 | -34.80974 | -55.98408 | 709 ft | 158 kts | 231° |
| 2026-04-25 22:00 | -34.81629 | -55.99479 | 533 ft | 158 kts | 232° |
| 2026-04-25 22:01 | -34.82296 | -56.00556 | 313 ft | 158 kts | 232° |
| 2026-04-25 22:01 | -34.82943 | -56.01614 | 113 ft | 150 kts | 233° |
| 2026-04-25 22:01 | -34.83507 | -56.02532 | 93 ft | 113 kts | 233° |
| 2026-04-25 22:01 | -34.83768 | -56.02958 | 66 ft | 77 kts | 233° |
| 2026-04-25 22:02 | -34.84071 | -56.03455 | 70 ft | 48 kts | 233° |
| 2026-04-25 22:02 | -34.84214 | -56.03652 | 62 ft | 22 kts | 193° |
| 2026-04-25 22:02 | -34.84235 | -56.03575 | 67 ft | 12 kts | 57° |
| 2026-04-25 22:02 | -34.84192 | -56.03490 | 66 ft | 12 kts | 59° |
| 2026-04-25 22:03 | -34.84154 | -56.03402 | 64 ft | 12 kts | 63° |
| 2026-04-25 22:03 | -34.84117 | -56.03314 | 67 ft | 12 kts | 63° |
| 2026-04-25 22:03 | -34.84076 | -56.03218 | 64 ft | 15 kts | 63° |
| 2026-04-25 22:03 | -34.84020 | -56.03079 | 61 ft | 21 kts | 69° |
| 2026-04-25 22:04 | -34.84010 | -56.02891 | 66 ft | 24 kts | 90° |
| 2026-04-25 22:04 | -34.83965 | -56.02696 | 67 ft | 25 kts | 67° |
| 2026-04-25 22:04 | -34.83950 | -56.02486 | 84 ft | 26 kts | 90° |
| 2026-04-25 22:04 | -34.83909 | -56.02380 | 88 ft | 9 kts | 354° |
| 2026-04-25 22:05 | -34.83878 | -56.02382 | 88 ft | 0 kts | 358° |